CheckWX is a tool to help pilots better visualize weather data.  It is not intended as a substitute for an official pre-flight weather briefing.

05:57:23 UTC

KPRC METAR
Ernest A Love Field Airport
Prescott, Arizona, USA
Current

1 hour ago

KPRC 040453Z AUTO 21003KT 10SM CLR 22/10 A3020 RMK AO2 SLP141 T02170100
Observed
Jul-4 @ 04:53 UTC
Wind
  • 210° at 3 KTS
Visibility
10 SM
Flight Rules
VFR
Cloud Levels
  • Clear skies
Temperature
22°C / 72°F
Dewpoint
10°C / 50°F
Humidity
47%
Altimeter
30.2" Hg
Pressure
1022.72 hPa
Previous

2 hours ago

KPRC 040353Z 02004KT 10SM CLR 23/09 A3019 RMK AO2 SLP136 T02280094
Observed
Jul-4 @ 03:53 UTC
Wind
  • 020° at 4 KTS
Visibility
10 SM
Flight Rules
VFR
Cloud Levels
  • Clear skies
Temperature
23°C / 73°F
Dewpoint
C / 48°F
Humidity
41%
Altimeter
30.19" Hg
Pressure
1022.32 hPa
Previous

3 hours ago

KPRC 040253Z 03016KT 10SM BKN085 25/09 A3016 RMK AO2 SLP128 T02500094 53002
Observed
Jul-4 @ 02:53 UTC
Wind
  • 030° at 16 KTS
Visibility
10 SM
Flight Rules
VFR
Cloud Levels
  • Broken at 8,500' AGL
Temperature
25°C / 77°F
Dewpoint
C / 48°F
Humidity
36%
Altimeter
30.16" Hg
Pressure
1021.32 hPa